»·PEaware :: SWA5175 KLAS-KONT

SWA5175 :: KLAS-KONT

FLIGHT INFORMATION

Flight Status: Arrived
Operator:
Southwest Airlines
More flights by this operator :: More flights under this callsign
Pilot: Nehseem A. (13724)
Aircraft: BOEING 737-200
(B732)
More flights by this aircraft type
Origin: KLAS McCarran Intl
United States
Destination: KONT Ontario Intl
United States
More flights between these airports :: More routes between these airports
Route: +MCCRN5 HEC ZIGGY7
File this flight plan on PilotEdge
Remarks:
Altitude:
(Current/Filed)
26,000ft
Speed:
(Current/Filed)
430kts
Departed: 06-Oct-19 10:17 AM
Arrived: 06-Oct-19 10:54 AM
Distance/Time
Traveled:
171nm/0:36
Distance/Time
To Go:
Arrived

Flight Plot

Page will automatically refresh every two minutes.

Flight plan parsing failed; only flown route is shown


Map Options




Map Legend


Flown Route
Filed Route
Departure Airport
Arrival Airport
Navaid (VOR, NDB)
Fix

Horizontal Profiles

Position Reports

Time Latitude Longitude Heading Altitude Ground
Speed
06-Oct-19 09:26 36.079996 -115.135653 22 2190ft 0kts
06-Oct-19 09:27 36.079996 -115.135653 22 2190ft 0kts
06-Oct-19 09:28 36.079996 -115.135653 22 2190ft 0kts
06-Oct-19 09:29 36.079996 -115.135653 22 2190ft 0kts
06-Oct-19 09:30 36.079996 -115.135653 22 2190ft 0kts
06-Oct-19 09:31 36.079996 -115.135653 22 2190ft 0kts
06-Oct-19 09:32 36.079996 -115.135653 22 2190ft 0kts
06-Oct-19 09:33 36.079996 -115.135653 22 2190ft 0kts
06-Oct-19 09:34 36.079996 -115.135653 22 2190ft 0kts
06-Oct-19 09:35 36.079996 -115.135653 22 2190ft 0kts
06-Oct-19 09:36 36.079996 -115.135653 22 2190ft 0kts
06-Oct-19 09:37 36.079996 -115.135653 22 2190ft 0kts
06-Oct-19 09:38 36.079996 -115.135653 22 2190ft 0kts
06-Oct-19 09:39 36.079996 -115.135653 22 2190ft 0kts
06-Oct-19 09:40 36.079996 -115.135653 22 2190ft 0kts
06-Oct-19 09:41 36.079996 -115.135653 22 2190ft 0kts
06-Oct-19 09:42 36.079996 -115.135653 22 2190ft 0kts
06-Oct-19 09:43 36.079996 -115.135653 22 2190ft 0kts
06-Oct-19 09:44 36.079996 -115.135653 22 2190ft 0kts
06-Oct-19 09:45 36.079996 -115.135653 22 2190ft 0kts
06-Oct-19 09:46 36.079996 -115.135653 22 2190ft 0kts
06-Oct-19 09:47 36.079996 -115.135653 22 2190ft 0kts
06-Oct-19 09:48 36.079996 -115.135653 22 2190ft 0kts
06-Oct-19 09:49 36.079996 -115.135653 22 2190ft 0kts
06-Oct-19 09:50 36.079996 -115.135653 22 2190ft 0kts
06-Oct-19 09:51 36.079996 -115.135653 22 2190ft 0kts
06-Oct-19 09:52 36.079996 -115.135653 22 2190ft 0kts
06-Oct-19 09:53 36.079996 -115.135653 22 2190ft 0kts
06-Oct-19 09:54 36.079996 -115.135653 22 2190ft 0kts
06-Oct-19 09:55 36.079996 -115.135653 22 2190ft 0kts
06-Oct-19 09:56 36.079996 -115.135653 22 2190ft 0kts
06-Oct-19 09:57 36.079996 -115.135653 22 2190ft 0kts
06-Oct-19 09:58 36.079716 -115.135798 22 2190ft 1kts
06-Oct-19 09:59 36.079351 -115.136301 95 2190ft 2kts
06-Oct-19 10:00 36.079459 -115.136586 133 2190ft 0kts
06-Oct-19 10:01 36.079459 -115.136586 133 2190ft 0kts
06-Oct-19 10:02 36.079459 -115.136586 133 2190ft 0kts
06-Oct-19 10:03 36.079459 -115.136586 133 2190ft 0kts
06-Oct-19 10:04 36.079459 -115.136586 133 2190ft 0kts
06-Oct-19 10:05 36.079459 -115.136586 133 2190ft 0kts
06-Oct-19 10:06 36.079458 -115.136586 133 2190ft 0kts
06-Oct-19 10:07 36.078286 -115.134796 97 2190ft 13kts
06-Oct-19 10:08 36.078276 -115.128992 90 2190ft 20kts
06-Oct-19 10:09 36.078088 -115.122408 126 2190ft 18kts
06-Oct-19 10:10 36.077525 -115.121564 130 2190ft 0kts
06-Oct-19 10:11 36.077525 -115.121564 130 2190ft 0kts
06-Oct-19 10:12 36.077506 -115.121536 130 2190ft 0kts
06-Oct-19 10:13 36.077445 -115.121456 135 2190ft 0kts
06-Oct-19 10:14 36.077445 -115.121456 135 2190ft 0kts
06-Oct-19 10:15 36.076439 -115.122418 270 2190ft 16kts
06-Oct-19 10:16 36.076342 -115.162608 273 2828ft 187kts
06-Oct-19 10:17 36.071599 -115.239680 245 5305ft 265kts
06-Oct-19 10:18 36.009909 -115.292997 199 6827ft 278kts
06-Oct-19 10:19 35.940325 -115.329299 196 9563ft 287kts
06-Oct-19 10:20 35.870796 -115.326507 172 12503ft 304kts
06-Oct-19 10:21 35.785530 -115.315078 172 15688ft 319kts
06-Oct-19 10:22 35.696327 -115.322067 198 18526ft 336kts
06-Oct-19 10:23 35.618574 -115.388479 222 21025ft 353kts
06-Oct-19 10:24 35.548071 -115.477253 224 23190ft 366kts
06-Oct-19 10:25 35.477085 -115.568097 224 24999ft 380kts
06-Oct-19 10:26 35.401907 -115.665835 226 25398ft 410kts
06-Oct-19 10:27 35.326471 -115.769975 227 26176ft 414kts
06-Oct-19 10:28 35.250789 -115.874819 226 26246ft 411kts
06-Oct-19 10:29 35.176101 -115.973661 225 26222ft 399kts
06-Oct-19 10:30 35.101749 -116.068186 224 26226ft 388kts
06-Oct-19 10:31 35.028206 -116.162032 228 26209ft 381kts
06-Oct-19 10:32 34.955583 -116.253909 232 26212ft 384kts
06-Oct-19 10:33 34.888727 -116.345377 231 26061ft 401kts
06-Oct-19 10:34 34.804230 -116.441098 225 24541ft 407kts
06-Oct-19 10:35 34.722237 -116.525420 223 24277ft 371kts
06-Oct-19 10:36 34.647316 -116.605097 234 24238ft 357kts
06-Oct-19 10:37 34.599885 -116.700377 230 24228ft 356kts
06-Oct-19 10:38 34.529825 -116.788443 230 23749ft 372kts
06-Oct-19 10:39 34.457307 -116.881063 229 21044ft 384kts
06-Oct-19 10:40 34.387380 -116.969874 227 18029ft 360kts
06-Oct-19 10:41 34.322893 -117.051308 226 15524ft 324kts
06-Oct-19 10:42 34.261473 -117.123389 213 13097ft 301kts
06-Oct-19 10:43 34.185008 -117.144899 174 11720ft 293kts
06-Oct-19 10:44 34.107248 -117.131787 173 10576ft 282kts
06-Oct-19 10:45 34.037955 -117.162169 228 9288ft 278kts
06-Oct-19 10:46 34.026379 -117.246931 298 7298ft 282kts
06-Oct-19 10:47 34.074522 -117.312866 313 5706ft 267kts
06-Oct-19 10:48 34.121629 -117.374064 293 4480ft 243kts
06-Oct-19 10:49 34.102737 -117.442724 223 3358ft 223kts
06-Oct-19 10:50 34.057550 -117.484676 227 2488ft 174kts
06-Oct-19 10:51 34.054396 -117.532984 273 1574ft 143kts
06-Oct-19 10:52 34.054907 -117.579686 269 1059ft 135kts
06-Oct-19 10:53 34.054955 -117.608345 268 952ft 37kts
06-Oct-19 10:54 34.055757 -117.610220 6 952ft 3kts
06-Oct-19 10:55 34.058021 -117.609275 91 952ft 10kts

Navigation Log

Ident Type
Flight plan parsing failed, navigation log unavailable